Aviation Digital Data Service (ADDS)

Output produced by TAFs form (0638 UTC 23 October 2014)
found at http://www.aviationweather.gov/adds/tafs/
 
KPSF 230523Z 2306/2406 04010G16KT 5SM -RA BR OVC020 
     TEMPO 2306/2308 3SM RA OVC015 
     FM230800 03010G15KT 4SM -RA BR SCT006 OVC012 
     TEMPO 2308/2312 2SM RA BR OVC006 
     FM231200 35012G20KT 2SM RA BR OVC007 
     FM231600 35012G20KT 3SM -RA BR OVC012